< < Back
Terminal Aerodrome Forecast


Current Version              Previous Versions:   1  2  3  4  5  6  7  8  9  

Terminal Aerodrome Forecast

392
FTUS42 KGSP 182339
TAFGSP
TAF
KGSP 182339Z 1900/1924 21003KT P6SM BKN060 OVC200
     FM190300 34004KT P6SM SCT060 BKN200
     FM191300 03005KT P6SM BKN200=



Latest METAR

035
SAUS70 KWBC 200400 RRK
MTRGSP
METAR KGSP 200353Z 00000KT 10SM FEW120 08/02 A3016 RMK AO2 SLP211
T00780017


USA.gov is the U.S. government's official web portal to all federal, state and local government web resources and services.